Hon Henry Jackman — C6VQ9 — position and weather

sailwx.info

Track history (hours):
 
Tides and Currents Weather Stations Pressure Air Temp Water Temp Dewpoint Dewpoint Depression Visibility Wind Speed Wind Dir Waves Ship Positions

Hon Henry Jackman

Last reported at 2018-Apr-20 06:16 UTC. Time now 2018-Apr-20 12:48 UTC.
Position N 38°38' W 123°56'.

Length 245 m; draft 8.3 m.

Type: Cargo ship. MMSI: 309822000.

Date/timePositionNaut miles runAvg speedWind from/ knotsBaromVisibWave heightAir tempDewpointWater temp
2018-Apr-20 06:16N 38°38' W 123°56'410.4
2018-Apr-20 05:56N 38°35' W 123°52'511.0
2018-Apr-20 05:30N 38°32' W 123°48'611.1
2018-Apr-20 05:00N 38°28' W 123°43'511.0
2018-Apr-20 04:31N 38°24' W 123°38'510.8
2018-Apr-20 04:01N 38°20' W 123°34'510.6
2018-Apr-20 03:31N 38°16' W 123°29'510.2
2018-Apr-20 03:00N 38°13' W 123°24'5 9.9
2018-Apr-20 02:30N 38°09' W 123°20'5 9.5
2018-Apr-20 02:01N 38°05' W 123°16'5 9.4
2018-Apr-20 01:31N 38°02' W 123°12'5 9.6
2018-Apr-20 01:00N 37°58' W 123°08'510.4
2018-Apr-20 00:31N 37°56' W 123°02'510.9
2018-Apr-20 00:01N 37°53' W 122°56'611.2
2018-Apr-19 23:31N 37°50' W 122°50'511.0
2018-Apr-19 23:01N 37°47' W 122°44'4 7.7
2018-Apr-19 22:31N 37°45' W 122°40'510.2
2018-Apr-19 22:01N 37°47' W 122°34'510.2
2018-Apr-19 21:31N 37°49' W 122°28'4 8.6
2018-Apr-19 21:01N 37°48' W 122°23'510.4
2018-Apr-19 20:30N 37°43' W 122°21'611.0
2018-Apr-19 20:01N 37°38' W 122°19'510.5
2018-Apr-19 19:30N 37°34' W 122°14'3 5.3
2018-Apr-19 18:52N 37°31' W 122°12'1 0.0
2018-Apr-18 22:10N 37°31' W 122°13'0 0.0
2018-Apr-18 21:46N 37°31' W 122°13'0 0.0
2018-Apr-18 20:52N 37°31' W 122°13'0 0.5
2018-Apr-18 20:29N 37°31' W 122°12'2 4.4
2018-Apr-18 20:00N 37°33' W 122°12'611.6
2018-Apr-18 19:29N 37°37' W 122°17'4 9.2
2018-Apr-18 19:00N 37°41' W 122°20'4 7.7
2018-Apr-18 18:30N 37°44' W 122°21'2 3.0
2018-Apr-18 17:58N 37°46' W 122°21'0 0.0
2018-Apr-18 17:28N 37°46' W 122°21'0 0.0
2018-Apr-18 16:58N 37°46' W 122°21'0 0.1
2018-Apr-18 16:28N 37°46' W 122°21'0 0.4
2018-Apr-18 15:58N 37°46' W 122°21'0 0.2
2018-Apr-18 15:28N 37°46' W 122°21'0 0.0
2018-Apr-18 14:58N 37°46' W 122°21'0 0.1
2018-Apr-18 14:28N 37°46' W 122°21'0 0.0
2018-Apr-18 13:58N 37°46' W 122°21'0 0.0
2018-Apr-18 13:28N 37°46' W 122°21'0 0.0
2018-Apr-18 12:58N 37°46' W 122°21'0 0.0
2018-Apr-18 12:28N 37°46' W 122°21'0 0.0
2018-Apr-18 11:58N 37°46' W 122°21'0 0.0
2018-Apr-18 11:28N 37°46' W 122°21'0 0.0
2018-Apr-18 10:58N 37°46' W 122°21'1 2.0
2018-Apr-18 10:30N 37°47' W 122°22'5 9.1
2018-Apr-18 10:00N 37°51' W 122°25'4 8.9
2018-Apr-18 09:30N 37°55' W 122°25'3 5.9
2018-Apr-18 09:00N 37°54' W 122°22'1 1.8
2018-Apr-18 08:30N 37°55' W 122°22'0 0.0
2018-Apr-18 07:59N 37°55' W 122°22'0 0.0
2018-Apr-18 07:29N 37°55' W 122°22'0 0.0
2018-Apr-18 06:59N 37°55' W 122°22'0 0.0
2018-Apr-18 06:29N 37°55' W 122°22'0 0.0
2018-Apr-18 05:59N 37°55' W 122°22'0 0.0
2018-Apr-18 05:29N 37°55' W 122°22'0 0.0
2018-Apr-18 04:59N 37°55' W 122°22'0 0.0
2018-Apr-18 04:29N 37°55' W 122°22'0 0.0
2018-Apr-18 03:59N 37°55' W 122°22'0 0.0
2018-Apr-18 03:29N 37°55' W 122°22'0 0.0
2018-Apr-18 02:59N 37°55' W 122°22'0 0.0
2018-Apr-18 02:29N 37°55' W 122°22'0 0.0
2018-Apr-18 01:56N 37°55' W 122°22'0 0.0
2018-Apr-18 01:29N 37°55' W 122°22'0 0.0
2018-Apr-18 00:56N 37°55' W 122°22'0 0.0
2018-Apr-18 00:26N 37°55' W 122°22'0 0.0
2018-Apr-17 23:56N 37°55' W 122°22'0 0.0
2018-Apr-17 23:29N 37°55' W 122°22'0 0.0
2018-Apr-17 22:59N 37°55' W 122°22'1 1.2
2018-Apr-17 22:26N 37°54' W 122°22'0 0.9
2018-Apr-17 22:00N 37°54' W 122°22'3 5.3
2018-Apr-17 21:30N 37°55' W 122°25'4 8.0
2018-Apr-17 21:00N 37°51' W 122°25'4 9.0
2018-Apr-17 20:30N 37°47' W 122°22'1 2.6
2018-Apr-17 19:58N 37°46' W 122°21'0 0.1
2018-Apr-17 19:25N 37°46' W 122°22'0 0.1
2018-Apr-17 18:58N 37°46' W 122°21'0 0.1
2018-Apr-17 18:28N 37°46' W 122°21'0 0.1
2018-Apr-17 17:58N 37°46' W 122°21'0 0.0
2018-Apr-17 17:28N 37°46' W 122°21'0 0.0
2018-Apr-17 16:58N 37°46' W 122°21'0 0.1
2018-Apr-17 16:28N 37°46' W 122°22'0 0.0
2018-Apr-17 15:58N 37°46' W 122°22'0 0.4
2018-Apr-17 15:28N 37°46' W 122°22'0 0.2
2018-Apr-17 14:58N 37°46' W 122°22'0 0.0
2018-Apr-17 14:28N 37°46' W 122°22'0 0.0
2018-Apr-17 13:58N 37°46' W 122°22'0 0.0
2018-Apr-17 13:28N 37°46' W 122°22'0 0.0
2018-Apr-17 12:58N 37°46' W 122°22'0 0.1
2018-Apr-17 12:28N 37°46' W 122°22'0 0.0
2018-Apr-17 12:01N 37°46' W 122°22'0 0.0
2018-Apr-17 11:30N 37°46' W 122°22'0 0.1
2018-Apr-17 11:00N 37°46' W 122°22'0 0.1
2018-Apr-17 10:30N 37°46' W 122°22'0 0.2
2018-Apr-17 10:00N 37°46' W 122°22'0 0.3
2018-Apr-17 09:30N 37°46' W 122°21'0 0.4
2018-Apr-17 09:00N 37°46' W 122°21'0 0.1
2018-Apr-17 08:30N 37°46' W 122°21'0 0.1
2018-Apr-17 08:00N 37°46' W 122°21'0 0.2
2018-Apr-17 07:30N 37°46' W 122°22'0 0.2
2018-Apr-17 07:00N 37°46' W 122°21'0 0.0
2018-Apr-17 06:30N 37°46' W 122°21'0 0.0
2018-Apr-17 06:00N 37°46' W 122°21'0 0.0
2018-Apr-17 05:30N 37°46' W 122°21'0 0.2
2018-Apr-17 05:00N 37°46' W 122°21'0 0.1
2018-Apr-17 04:30N 37°46' W 122°22'0 0.1
2018-Apr-17 04:00N 37°46' W 122°22'0 0.0
2018-Apr-17 03:30N 37°46' W 122°22'0 0.2
2018-Apr-17 03:00N 37°46' W 122°21'0 0.3
2018-Apr-17 02:30N 37°46' W 122°21'0 0.2
2018-Apr-17 02:00N 37°46' W 122°22'0 0.1
2018-Apr-17 01:30N 37°46' W 122°22'0 0.0
2018-Apr-17 01:00N 37°46' W 122°22'0 0.0
2018-Apr-17 00:30N 37°46' W 122°22'0 0.0
2018-Apr-17 00:00N 37°46' W 122°22'0 0.2
2018-Apr-16 23:30N 37°46' W 122°22'0 0.0
2018-Apr-16 23:00N 37°46' W 122°22'0 0.0
2018-Apr-16 22:30N 37°46' W 122°22'0 0.0
2018-Apr-16 22:00N 37°46' W 122°22'0 0.3
2018-Apr-16 21:30N 37°46' W 122°21'0 0.5
2018-Apr-16 21:00N 37°46' W 122°21'0 0.2
2018-Apr-16 20:30N 37°46' W 122°21'0 0.0
2018-Apr-16 20:00N 37°46' W 122°21'0 0.0
2018-Apr-16 19:30N 37°46' W 122°21'0 0.0
2018-Apr-16 19:00N 37°46' W 122°21'0 0.0
2018-Apr-16 18:30N 37°46' W 122°21'0 0.0
2018-Apr-16 18:00N 37°46' W 122°21'0 0.1
2018-Apr-16 17:30N 37°46' W 122°21'0 0.1
2018-Apr-16 17:00N 37°46' W 122°21'0 0.1
2018-Apr-16 16:30N 37°46' W 122°21'0 0.0
2018-Apr-16 16:00N 37°46' W 122°21'0 0.3
2018-Apr-16 15:30N 37°46' W 122°21'0 0.7
2018-Apr-16 15:00N 37°46' W 122°22'0 0.1
2018-Apr-16 14:30N 37°46' W 122°22'0 0.0
2018-Apr-16 14:00N 37°46' W 122°22'0 0.0
2018-Apr-16 13:30N 37°46' W 122°22'0 0.0
2018-Apr-16 13:00N 37°46' W 122°22'3 5.6
2018-Apr-16 12:30N 37°49' W 122°24'4 8.3
2018-Apr-16 12:00N 37°49' W 122°29'4 7.9
2018-Apr-16 11:30N 37°47' W 122°33'5 9.2
2018-Apr-16 11:00N 37°46' W 122°39'510.3
2018-Apr-16 10:30N 37°47' W 122°45'612.1
2018-Apr-16 09:59N 37°49' W 122°53'612.4
2018-Apr-16 09:30N 37°52' W 122°59'612.5
2018-Apr-16 09:00N 37°55' W 123°06'612.6
2018-Apr-16 08:30N 37°59' W 123°13'612.8
2018-Apr-16 08:00N 38°04' W 123°18'612.4
2018-Apr-16 07:30N 38°09' W 123°23'612.3
2018-Apr-16 07:00N 38°13' W 123°28'612.1
2018-Apr-16 06:30N 38°18' W 123°33'612.0
2018-Apr-16 06:00N 38°22' W 123°38'612.1
2018-Apr-16 05:30N 38°27' W 123°44'  
2018-Apr-13 09:54N 50°49' W 128°27'511.4
2018-Apr-13 09:29N 50°52' W 128°21'811.2
2018-Apr-13 08:46N 50°57' W 128°10'311.2
2018-Apr-13 08:30N 50°59' W 128°07'510.9
2018-Apr-13 08:00N 51°00' W 127°58'611.5
2018-Apr-13 07:30N 50°59' W 127°50'5 9.2
2018-Apr-13 06:59N 50°57' W 127°43'510.7
2018-Apr-13 06:30N 50°53' W 127°37'611.1
2018-Apr-13 06:00N 50°50' W 127°29'611.9
2018-Apr-13 05:30N 50°47' W 127°22'13 1.1
2018-Apr-12 18:13N 50°37' W 127°09'0 0.0
2018-Apr-12 17:55N 50°37' W 127°09'0 0.0
2018-Apr-12 04:46N 50°37' W 127°08'1 4.2
2018-Apr-12 04:27N 50°37' W 127°10'711.1
2018-Apr-12 03:52N 50°42' W 127°17'513.6
2018-Apr-12 03:30N 50°46' W 127°22'713.6
2018-Apr-12 03:00N 50°50' W 127°30'713.1
2018-Apr-12 02:30N 50°54' W 127°39'713.0
2018-Apr-12 02:00N 50°58' W 127°47'611.4
2018-Apr-12 01:30N 51°00' W 127°55'1011.9
2018-Apr-12 00:38N 50°59' W 128°12'212.3
2018-Apr-12 00:28N 50°59' W 128°15'  
Track history (hours):
 
Tides and Currents Weather Stations Pressure Air Temp Water Temp Dewpoint Dewpoint Depression Visibility Wind Speed Wind Dir Waves Ship Positions

Hon Henry Jackman

Last reported at 2018-Apr-20 06:16 UTC. Time now 2018-Apr-20 12:48 UTC.
Position N 38°38' W 123°56'.

Length 245 m; draft 8.3 m.

Type: Cargo ship. MMSI: 309822000.

Date/timePositionNaut miles runAvg speedWind from/ knotsBaromVisibWave heightAir tempDewpointWater temp
2018-Apr-20 06:16N 38°38' W 123°56'410.4
2018-Apr-20 05:56N 38°35' W 123°52'511.0
2018-Apr-20 05:30N 38°32' W 123°48'611.1
2018-Apr-20 05:00N 38°28' W 123°43'511.0
2018-Apr-20 04:31N 38°24' W 123°38'510.8
2018-Apr-20 04:01N 38°20' W 123°34'510.6
2018-Apr-20 03:31N 38°16' W 123°29'510.2
2018-Apr-20 03:00N 38°13' W 123°24'5 9.9
2018-Apr-20 02:30N 38°09' W 123°20'5 9.5
2018-Apr-20 02:01N 38°05' W 123°16'5 9.4
2018-Apr-20 01:31N 38°02' W 123°12'5 9.6
2018-Apr-20 01:00N 37°58' W 123°08'510.4
2018-Apr-20 00:31N 37°56' W 123°02'510.9
2018-Apr-20 00:01N 37°53' W 122°56'611.2
2018-Apr-19 23:31N 37°50' W 122°50'511.0
2018-Apr-19 23:01N 37°47' W 122°44'4 7.7
2018-Apr-19 22:31N 37°45' W 122°40'510.2
2018-Apr-19 22:01N 37°47' W 122°34'510.2
2018-Apr-19 21:31N 37°49' W 122°28'4 8.6
2018-Apr-19 21:01N 37°48' W 122°23'510.4
2018-Apr-19 20:30N 37°43' W 122°21'611.0
2018-Apr-19 20:01N 37°38' W 122°19'510.5
2018-Apr-19 19:30N 37°34' W 122°14'3 5.3
2018-Apr-19 18:52N 37°31' W 122°12'1 0.0
2018-Apr-18 22:10N 37°31' W 122°13'0 0.0
2018-Apr-18 21:46N 37°31' W 122°13'0 0.0
2018-Apr-18 20:52N 37°31' W 122°13'0 0.5
2018-Apr-18 20:29N 37°31' W 122°12'2 4.4
2018-Apr-18 20:00N 37°33' W 122°12'611.6
2018-Apr-18 19:29N 37°37' W 122°17'4 9.2
2018-Apr-18 19:00N 37°41' W 122°20'4 7.7
2018-Apr-18 18:30N 37°44' W 122°21'2 3.0
2018-Apr-18 17:58N 37°46' W 122°21'0 0.0
2018-Apr-18 17:28N 37°46' W 122°21'0 0.0
2018-Apr-18 16:58N 37°46' W 122°21'0 0.1
2018-Apr-18 16:28N 37°46' W 122°21'0 0.4
2018-Apr-18 15:58N 37°46' W 122°21'0 0.2
2018-Apr-18 15:28N 37°46' W 122°21'0 0.0
2018-Apr-18 14:58N 37°46' W 122°21'0 0.1
2018-Apr-18 14:28N 37°46' W 122°21'0 0.0
2018-Apr-18 13:58N 37°46' W 122°21'0 0.0
2018-Apr-18 13:28N 37°46' W 122°21'0 0.0
2018-Apr-18 12:58N 37°46' W 122°21'0 0.0
2018-Apr-18 12:28N 37°46' W 122°21'0 0.0
2018-Apr-18 11:58N 37°46' W 122°21'0 0.0
2018-Apr-18 11:28N 37°46' W 122°21'0 0.0
2018-Apr-18 10:58N 37°46' W 122°21'1 2.0
2018-Apr-18 10:30N 37°47' W 122°22'5 9.1
2018-Apr-18 10:00N 37°51' W 122°25'4 8.9
2018-Apr-18 09:30N 37°55' W 122°25'3 5.9
2018-Apr-18 09:00N 37°54' W 122°22'1 1.8
2018-Apr-18 08:30N 37°55' W 122°22'0 0.0
2018-Apr-18 07:59N 37°55' W 122°22'0 0.0
2018-Apr-18 07:29N 37°55' W 122°22'0 0.0
2018-Apr-18 06:59N 37°55' W 122°22'0 0.0
2018-Apr-18 06:29N 37°55' W 122°22'0 0.0
2018-Apr-18 05:59N 37°55' W 122°22'0 0.0
2018-Apr-18 05:29N 37°55' W 122°22'0 0.0
2018-Apr-18 04:59N 37°55' W 122°22'0 0.0
2018-Apr-18 04:29N 37°55' W 122°22'0 0.0
2018-Apr-18 03:59N 37°55' W 122°22'0 0.0
2018-Apr-18 03:29N 37°55' W 122°22'0 0.0
2018-Apr-18 02:59N 37°55' W 122°22'0 0.0
2018-Apr-18 02:29N 37°55' W 122°22'0 0.0
2018-Apr-18 01:56N 37°55' W 122°22'0 0.0
2018-Apr-18 01:29N 37°55' W 122°22'0 0.0
2018-Apr-18 00:56N 37°55' W 122°22'0 0.0
2018-Apr-18 00:26N 37°55' W 122°22'0 0.0
2018-Apr-17 23:56N 37°55' W 122°22'0 0.0
2018-Apr-17 23:29N 37°55' W 122°22'0 0.0
2018-Apr-17 22:59N 37°55' W 122°22'1 1.2
2018-Apr-17 22:26N 37°54' W 122°22'0 0.9
2018-Apr-17 22:00N 37°54' W 122°22'3 5.3
2018-Apr-17 21:30N 37°55' W 122°25'4 8.0
2018-Apr-17 21:00N 37°51' W 122°25'4 9.0
2018-Apr-17 20:30N 37°47' W 122°22'1 2.6
2018-Apr-17 19:58N 37°46' W 122°21'0 0.1
2018-Apr-17 19:25N 37°46' W 122°22'0 0.1
2018-Apr-17 18:58N 37°46' W 122°21'0 0.1
2018-Apr-17 18:28N 37°46' W 122°21'0 0.1
2018-Apr-17 17:58N 37°46' W 122°21'0 0.0
2018-Apr-17 17:28N 37°46' W 122°21'0 0.0
2018-Apr-17 16:58N 37°46' W 122°21'0 0.1
2018-Apr-17 16:28N 37°46' W 122°22'0 0.0
2018-Apr-17 15:58N 37°46' W 122°22'0 0.4
2018-Apr-17 15:28N 37°46' W 122°22'0 0.2
2018-Apr-17 14:58N 37°46' W 122°22'0 0.0
2018-Apr-17 14:28N 37°46' W 122°22'0 0.0
2018-Apr-17 13:58N 37°46' W 122°22'0 0.0
2018-Apr-17 13:28N 37°46' W 122°22'0 0.0
2018-Apr-17 12:58N 37°46' W 122°22'0 0.1
2018-Apr-17 12:28N 37°46' W 122°22'0 0.0
2018-Apr-17 12:01N 37°46' W 122°22'0 0.0
2018-Apr-17 11:30N 37°46' W 122°22'0 0.1
2018-Apr-17 11:00N 37°46' W 122°22'0 0.1
2018-Apr-17 10:30N 37°46' W 122°22'0 0.2
2018-Apr-17 10:00N 37°46' W 122°22'0 0.3
2018-Apr-17 09:30N 37°46' W 122°21'0 0.4
2018-Apr-17 09:00N 37°46' W 122°21'0 0.1
2018-Apr-17 08:30N 37°46' W 122°21'0 0.1
2018-Apr-17 08:00N 37°46' W 122°21'0 0.2
2018-Apr-17 07:30N 37°46' W 122°22'0 0.2
2018-Apr-17 07:00N 37°46' W 122°21'0 0.0
2018-Apr-17 06:30N 37°46' W 122°21'0 0.0
2018-Apr-17 06:00N 37°46' W 122°21'0 0.0
2018-Apr-17 05:30N 37°46' W 122°21'0 0.2
2018-Apr-17 05:00N 37°46' W 122°21'0 0.1
2018-Apr-17 04:30N 37°46' W 122°22'0 0.1
2018-Apr-17 04:00N 37°46' W 122°22'0 0.0
2018-Apr-17 03:30N 37°46' W 122°22'0 0.2
2018-Apr-17 03:00N 37°46' W 122°21'0 0.3
2018-Apr-17 02:30N 37°46' W 122°21'0 0.2
2018-Apr-17 02:00N 37°46' W 122°22'0 0.1
2018-Apr-17 01:30N 37°46' W 122°22'0 0.0
2018-Apr-17 01:00N 37°46' W 122°22'0 0.0
2018-Apr-17 00:30N 37°46' W 122°22'0 0.0
2018-Apr-17 00:00N 37°46' W 122°22'0 0.2
2018-Apr-16 23:30N 37°46' W 122°22'0 0.0
2018-Apr-16 23:00N 37°46' W 122°22'0 0.0
2018-Apr-16 22:30N 37°46' W 122°22'0 0.0
2018-Apr-16 22:00N 37°46' W 122°22'0 0.3
2018-Apr-16 21:30N 37°46' W 122°21'0 0.5
2018-Apr-16 21:00N 37°46' W 122°21'0 0.2
2018-Apr-16 20:30N 37°46' W 122°21'0 0.0
2018-Apr-16 20:00N 37°46' W 122°21'0 0.0
2018-Apr-16 19:30N 37°46' W 122°21'0 0.0
2018-Apr-16 19:00N 37°46' W 122°21'0 0.0
2018-Apr-16 18:30N 37°46' W 122°21'0 0.0
2018-Apr-16 18:00N 37°46' W 122°21'0 0.1
2018-Apr-16 17:30N 37°46' W 122°21'0 0.1
2018-Apr-16 17:00N 37°46' W 122°21'0 0.1
2018-Apr-16 16:30N 37°46' W 122°21'0 0.0
2018-Apr-16 16:00N 37°46' W 122°21'0 0.3
2018-Apr-16 15:30N 37°46' W 122°21'0 0.7
2018-Apr-16 15:00N 37°46' W 122°22'0 0.1
2018-Apr-16 14:30N 37°46' W 122°22'0 0.0
2018-Apr-16 14:00N 37°46' W 122°22'0 0.0
2018-Apr-16 13:30N 37°46' W 122°22'0 0.0
2018-Apr-16 13:00N 37°46' W 122°22'3 5.6
2018-Apr-16 12:30N 37°49' W 122°24'4 8.3
2018-Apr-16 12:00N 37°49' W 122°29'4 7.9
2018-Apr-16 11:30N 37°47' W 122°33'5 9.2
2018-Apr-16 11:00N 37°46' W 122°39'510.3
2018-Apr-16 10:30N 37°47' W 122°45'612.1
2018-Apr-16 09:59N 37°49' W 122°53'612.4
2018-Apr-16 09:30N 37°52' W 122°59'612.5
2018-Apr-16 09:00N 37°55' W 123°06'612.6
2018-Apr-16 08:30N 37°59' W 123°13'612.8
2018-Apr-16 08:00N 38°04' W 123°18'612.4
2018-Apr-16 07:30N 38°09' W 123°23'612.3
2018-Apr-16 07:00N 38°13' W 123°28'612.1
2018-Apr-16 06:30N 38°18' W 123°33'612.0
2018-Apr-16 06:00N 38°22' W 123°38'612.1
2018-Apr-16 05:30N 38°27' W 123°44'  
2018-Apr-13 09:54N 50°49' W 128°27'511.4
2018-Apr-13 09:29N 50°52' W 128°21'811.2
2018-Apr-13 08:46N 50°57' W 128°10'311.2
2018-Apr-13 08:30N 50°59' W 128°07'510.9
2018-Apr-13 08:00N 51°00' W 127°58'611.5
2018-Apr-13 07:30N 50°59' W 127°50'5 9.2
2018-Apr-13 06:59N 50°57' W 127°43'510.7
2018-Apr-13 06:30N 50°53' W 127°37'611.1
2018-Apr-13 06:00N 50°50' W 127°29'611.9
2018-Apr-13 05:30N 50°47' W 127°22'13 1.1
2018-Apr-12 18:13N 50°37' W 127°09'0 0.0
2018-Apr-12 17:55N 50°37' W 127°09'0 0.0
2018-Apr-12 04:46N 50°37' W 127°08'1 4.2
2018-Apr-12 04:27N 50°37' W 127°10'711.1
2018-Apr-12 03:52N 50°42' W 127°17'513.6
2018-Apr-12 03:30N 50°46' W 127°22'713.6
2018-Apr-12 03:00N 50°50' W 127°30'713.1
2018-Apr-12 02:30N 50°54' W 127°39'713.0
2018-Apr-12 02:00N 50°58' W 127°47'611.4
2018-Apr-12 01:30N 51°00' W 127°55'1011.9
2018-Apr-12 00:38N 50°59' W 128°12'212.3
2018-Apr-12 00:28N 50°59' W 128°15'  

Dump ship's entire track history